createdAt,value
2022-11-09T00:01:57.211Z,10.70
2022-11-09T00:04:27.419Z,10.70
2022-11-09T00:06:57.812Z,10.70
2022-11-09T00:09:26.470Z,10.70
2022-11-09T00:11:56.504Z,10.70
2022-11-09T00:14:25.371Z,10.70
2022-11-09T00:16:53.931Z,10.80
2022-11-09T00:19:22.480Z,10.80
2022-11-09T00:21:51.187Z,10.80
2022-11-09T00:24:19.843Z,10.70
2022-11-09T00:26:48.563Z,10.70
2022-11-09T00:29:18.911Z,10.80
2022-11-09T00:31:50.731Z,10.80
2022-11-09T00:34:19.398Z,10.70
2022-11-09T00:36:48.012Z,10.70
2022-11-09T00:39:16.599Z,10.70
2022-11-09T00:41:45.227Z,10.70
2022-11-09T00:44:13.953Z,10.70
2022-11-09T00:46:44.498Z,10.70
2022-11-09T00:49:13.338Z,10.70
2022-11-09T00:51:42.718Z,10.60
2022-11-09T00:54:11.911Z,10.70
2022-11-09T00:56:41.484Z,10.70
2022-11-09T00:59:12.466Z,10.70
2022-11-09T01:01:41.283Z,10.70
2022-11-09T01:04:11.476Z,10.70
2022-11-09T01:06:40.246Z,10.70
2022-11-09T01:09:12.834Z,10.70
2022-11-09T01:11:41.480Z,10.70
2022-11-09T01:14:11.458Z,10.70
2022-11-09T01:16:41.008Z,10.70
2022-11-09T01:19:10.780Z,10.70
2022-11-09T01:21:39.356Z,10.70
2022-11-09T01:24:08.108Z,10.70
2022-11-09T01:26:36.675Z,10.70
2022-11-09T01:29:05.330Z,10.70
2022-11-09T01:31:35.340Z,10.70
2022-11-09T01:34:04.069Z,10.70
2022-11-09T01:36:36.477Z,10.70
2022-11-09T01:39:05.122Z,10.60
2022-11-09T01:41:33.692Z,10.60
2022-11-09T01:44:08.178Z,10.60
2022-11-09T01:46:49.693Z,10.60
2022-11-09T01:49:31.137Z,10.60
2022-11-09T01:52:04.532Z,10.60
2022-11-09T01:54:36.566Z,10.60
2022-11-09T01:57:11.763Z,10.60
2022-11-09T01:59:44.542Z,10.60
2022-11-09T02:02:13.589Z,10.60
2022-11-09T02:04:49.059Z,10.60
2022-11-09T02:07:20.812Z,10.60
2022-11-09T02:09:55.983Z,10.60
2022-11-09T02:12:25.599Z,10.50
2022-11-09T02:14:55.948Z,10.50
2022-11-09T02:17:24.750Z,10.50
2022-11-09T02:19:53.522Z,10.50
2022-11-09T02:22:23.509Z,10.50
2022-11-09T02:24:56.129Z,10.50
2022-11-09T02:27:26.057Z,10.50
2022-11-09T02:29:55.984Z,10.50
2022-11-09T02:32:28.859Z,10.50
2022-11-09T02:34:59.564Z,10.50
2022-11-09T02:37:32.481Z,10.50
2022-11-09T02:40:04.011Z,10.40
2022-11-09T02:42:33.021Z,10.40
2022-11-09T02:45:01.941Z,10.40
2022-11-09T02:47:30.497Z,10.40
2022-11-09T02:49:59.787Z,10.50
2022-11-09T02:52:30.291Z,10.50
2022-11-09T02:54:58.968Z,10.50
2022-11-09T02:57:27.603Z,10.40
2022-11-09T02:59:56.274Z,10.40
2022-11-09T03:02:25.031Z,10.40
2022-11-09T03:04:53.870Z,10.40
2022-11-09T03:07:23.161Z,10.40
2022-11-09T03:09:54.110Z,10.40
2022-11-09T03:12:31.179Z,10.40
2022-11-09T03:15:15.025Z,10.40
2022-11-09T03:17:46.918Z,10.30
2022-11-09T03:20:29.482Z,10.30
2022-11-09T03:23:09.527Z,10.30
2022-11-09T03:25:41.929Z,10.30
2022-11-09T03:28:11.057Z,10.30
2022-11-09T03:30:41.817Z,10.20
2022-11-09T03:33:10.505Z,10.20
2022-11-09T03:35:40.438Z,10.20
2022-11-09T03:38:09.687Z,10.20
2022-11-09T03:40:38.354Z,10.20
2022-11-09T03:43:08.460Z,10.20
2022-11-09T03:45:37.363Z,10.10
2022-11-09T03:48:06.675Z,10.10
2022-11-09T03:50:40.484Z,10.10
2022-11-09T03:53:10.776Z,10.10
2022-11-09T03:55:40.314Z,10.00
2022-11-09T03:58:11.297Z,10.10
2022-11-09T04:00:39.969Z,10.10
2022-11-09T04:03:08.794Z,10.10
2022-11-09T04:05:37.675Z,10.10
2022-11-09T04:08:06.804Z,10.10
2022-11-09T04:10:35.474Z,10.10
2022-11-09T04:13:04.076Z,10.10
2022-11-09T04:15:34.124Z,10.10
2022-11-09T04:18:03.714Z,10.00
2022-11-09T04:20:33.129Z,10.10
2022-11-09T04:23:03.246Z,10.10
2022-11-09T04:25:35.135Z,10.10
2022-11-09T04:28:05.430Z,10.10
2022-11-09T04:30:37.781Z,10.10
2022-11-09T04:33:07.233Z,10.10
2022-11-09T04:35:35.999Z,10.00
2022-11-09T04:38:07.413Z,10.00
2022-11-09T04:40:37.270Z,10.10
2022-11-09T04:43:07.765Z,10.00
2022-11-09T04:45:37.974Z,10.00
2022-11-09T04:48:08.521Z,10.00
2022-11-09T04:50:37.414Z,10.00
2022-11-09T04:53:08.135Z,10.10
2022-11-09T04:55:36.845Z,10.00
2022-11-09T04:58:05.559Z,10.10
2022-11-09T05:00:34.524Z,10.00
2022-11-09T05:03:06.135Z,10.00
2022-11-09T05:05:35.659Z,10.00
2022-11-09T05:08:04.771Z,10.00
2022-11-09T05:10:33.782Z,10.00
2022-11-09T05:13:03.301Z,10.00
2022-11-09T05:15:31.774Z,10.00
2022-11-09T05:18:01.734Z,10.00
2022-11-09T05:20:31.767Z,10.00
2022-11-09T05:23:18.881Z,10.00
2022-11-09T05:25:48.023Z,10.00
2022-11-09T05:28:16.657Z,10.00
2022-11-09T05:30:45.178Z,9.90
2022-11-09T05:33:15.240Z,9.90
2022-11-09T05:35:45.285Z,9.90
2022-11-09T05:38:13.925Z,9.90
2022-11-09T05:40:42.477Z,9.90
2022-11-09T05:43:11.047Z,9.90
2022-11-09T05:45:43.850Z,9.80
2022-11-09T05:48:14.465Z,9.80
2022-11-09T05:50:44.848Z,9.80
2022-11-09T05:53:23.868Z,9.80
2022-11-09T05:55:52.907Z,9.70
2022-11-09T05:58:21.528Z,9.70
2022-11-09T06:00:50.121Z,9.70
2022-11-09T06:03:19.058Z,9.80
2022-11-09T06:05:49.321Z,9.70
2022-11-09T06:08:17.887Z,9.70
2022-11-09T06:10:46.552Z,9.70
2022-11-09T06:13:15.316Z,9.70
2022-11-09T06:15:43.855Z,9.60
2022-11-09T06:18:12.650Z,9.70
2022-11-09T06:20:41.308Z,9.70
2022-11-09T06:23:12.191Z,9.70
2022-11-09T06:25:41.005Z,9.70
2022-11-09T06:28:09.639Z,9.60
2022-11-09T06:30:38.232Z,9.60
2022-11-09T06:33:06.933Z,9.60
2022-11-09T06:35:35.514Z,9.60
2022-11-09T06:38:04.301Z,9.60
2022-11-09T06:40:35.505Z,9.60
2022-11-09T06:43:04.672Z,9.60
2022-11-09T06:45:33.677Z,9.60
2022-11-09T06:48:04.201Z,9.60
2022-11-09T06:50:36.478Z,9.70
2022-11-09T06:53:06.835Z,9.70
2022-11-09T06:55:38.000Z,9.60
2022-11-09T06:58:08.382Z,9.70
2022-11-09T07:00:37.916Z,9.70
2022-11-09T07:03:06.560Z,9.70
2022-11-09T07:05:38.944Z,9.70
2022-11-09T07:08:07.666Z,9.70
2022-11-09T07:10:38.060Z,9.60
2022-11-09T07:13:07.216Z,9.70
2022-11-09T07:15:36.797Z,9.60
2022-11-09T07:18:07.333Z,9.70
2022-11-09T07:20:36.270Z,9.70
2022-11-09T07:23:04.842Z,9.70
2022-11-09T07:25:33.874Z,9.70
2022-11-09T07:28:09.126Z,9.70
2022-11-09T07:30:38.236Z,9.70
2022-11-09T07:33:14.894Z,9.70
2022-11-09T07:35:43.594Z,9.80
2022-11-09T07:38:12.442Z,9.80
2022-11-09T07:40:41.028Z,9.80
2022-11-09T07:43:13.330Z,9.80
2022-11-09T07:45:43.527Z,9.80
2022-11-09T07:48:14.062Z,9.80
2022-11-09T07:50:43.520Z,9.80
2022-11-09T07:53:14.777Z,9.90
2022-11-09T07:55:44.483Z,9.90
2022-11-09T07:58:16.466Z,9.90
2022-11-09T08:00:45.431Z,10.00
2022-11-09T08:03:15.188Z,10.00
2022-11-09T08:05:44.014Z,9.90
2022-11-09T08:08:13.517Z,10.00
2022-11-09T08:10:41.966Z,10.00
2022-11-09T08:13:14.825Z,10.00
2022-11-09T08:15:44.012Z,10.00
2022-11-09T08:18:15.840Z,10.00
2022-11-09T08:20:44.738Z,10.10
2022-11-09T08:23:14.212Z,10.00
2022-11-09T08:25:43.061Z,10.00
2022-11-09T08:28:15.094Z,10.10
2022-11-09T08:30:45.360Z,10.10
2022-11-09T08:33:14.685Z,10.10
2022-11-09T08:35:43.250Z,10.10
2022-11-09T08:38:11.950Z,10.20
2022-11-09T08:40:40.664Z,10.20
2022-11-09T08:43:15.220Z,10.20
2022-11-09T08:45:43.889Z,10.20
2022-11-09T08:48:17.631Z,10.10
2022-11-09T08:50:46.579Z,10.10
2022-11-09T08:53:15.363Z,10.20
2022-11-09T08:55:49.238Z,10.20
2022-11-09T08:58:20.237Z,10.20
2022-11-09T09:00:49.687Z,10.20
2022-11-09T09:03:18.579Z,10.20
2022-11-09T09:05:47.186Z,10.20
2022-11-09T09:08:19.236Z,10.20
2022-11-09T09:10:48.132Z,10.10
2022-11-09T09:13:19.437Z,10.20
2022-11-09T09:15:48.083Z,10.20
2022-11-09T09:18:16.782Z,10.20
2022-11-09T09:20:45.421Z,10.20
2022-11-09T09:23:15.437Z,10.20
2022-11-09T09:25:44.277Z,10.20
2022-11-09T09:28:13.277Z,10.20
2022-11-09T09:30:43.415Z,10.30
2022-11-09T09:33:12.864Z,10.30
2022-11-09T09:35:41.533Z,10.30
2022-11-09T09:38:10.202Z,10.40
2022-11-09T09:40:44.947Z,10.40
2022-11-09T09:43:23.122Z,10.30
2022-11-09T09:45:55.178Z,10.40
2022-11-09T09:48:31.326Z,10.40
2022-11-09T09:51:05.465Z,10.50
2022-11-09T09:53:38.096Z,10.50
2022-11-09T09:56:12.556Z,10.50
2022-11-09T09:58:46.150Z,10.50
2022-11-09T10:01:20.167Z,10.60
2022-11-09T10:03:49.154Z,10.50
2022-11-09T10:06:37.954Z,10.60
2022-11-09T10:09:18.784Z,10.60
2022-11-09T10:11:58.540Z,10.70
2022-11-09T10:18:16.657Z,10.70
2022-11-09T10:21:13.440Z,10.70
2022-11-09T10:23:49.845Z,10.70
2022-11-09T10:26:24.226Z,10.80
2022-11-09T10:31:48.656Z,10.80
2022-11-09T10:34:22.035Z,10.80
2022-11-09T10:36:59.900Z,10.90
2022-11-09T10:39:34.375Z,11.00
2022-11-09T10:42:21.708Z,11.00
2022-11-09T10:45:14.964Z,11.10
2022-11-09T10:48:03.768Z,11.10
2022-11-09T10:50:54.156Z,11.20
2022-11-09T10:53:44.163Z,11.30
2022-11-09T10:56:41.771Z,11.30
2022-11-09T10:59:42.018Z,11.30
2022-11-09T11:02:45.977Z,11.40
2022-11-09T11:05:35.035Z,11.40
2022-11-09T11:08:33.083Z,11.40
2022-11-09T11:11:33.752Z,11.40
2022-11-09T11:14:30.576Z,11.40
2022-11-09T11:17:26.216Z,11.50
2022-11-09T11:20:31.620Z,11.50
2022-11-09T11:23:21.984Z,11.50
2022-11-09T11:26:35.458Z,11.60
2022-11-09T11:29:38.790Z,11.70
2022-11-09T11:32:26.558Z,11.80
2022-11-09T11:35:16.419Z,11.80
2022-11-09T11:38:15.699Z,11.80
2022-11-09T11:41:16.111Z,11.90
2022-11-09T11:44:17.762Z,11.80
2022-11-09T11:47:14.670Z,11.80
2022-11-09T11:50:19.340Z,11.70
2022-11-09T11:53:28.418Z,11.70
2022-11-09T11:56:30.668Z,11.60
2022-11-09T11:59:35.740Z,11.70
2022-11-09T12:02:55.086Z,11.60
2022-11-09T12:05:50.962Z,11.60
2022-11-09T12:08:51.717Z,11.60
2022-11-09T12:11:55.001Z,11.50
2022-11-09T12:14:54.858Z,11.50
2022-11-09T12:17:51.449Z,11.50
2022-11-09T12:20:44.600Z,11.40
2022-11-09T12:23:48.252Z,11.40
2022-11-09T12:27:10.853Z,11.40
2022-11-09T12:30:05.310Z,11.40
2022-11-09T12:32:56.070Z,11.40
2022-11-09T12:35:49.674Z,11.40
2022-11-09T12:38:40.385Z,11.30
2022-11-09T12:41:31.712Z,11.40
2022-11-09T12:44:23.770Z,11.30
2022-11-09T12:47:17.001Z,11.30
2022-11-09T12:50:04.667Z,11.30
2022-11-09T12:52:53.550Z,11.30
2022-11-09T12:55:53.370Z,11.30
2022-11-09T12:58:41.395Z,11.30
2022-11-09T13:01:58.100Z,11.30
2022-11-09T13:04:56.748Z,11.30
2022-11-09T13:14:42.814Z,11.20
2022-11-09T13:18:04.859Z,11.20
2022-11-09T13:20:56.674Z,11.20
2022-11-09T13:24:03.207Z,11.30
2022-11-09T13:26:58.594Z,11.20
2022-11-09T13:29:56.620Z,11.20
2022-11-09T13:33:21.389Z,11.20
2022-11-09T13:36:21.057Z,11.20
2022-11-09T13:39:33.478Z,11.10
2022-11-09T13:42:28.691Z,11.10
2022-11-09T13:45:27.680Z,11.20
2022-11-09T13:48:34.986Z,11.10
2022-11-09T13:51:38.904Z,11.20
2022-11-09T13:54:31.892Z,11.10
2022-11-09T13:57:19.328Z,11.10
2022-11-09T14:00:18.939Z,11.10
2022-11-09T14:03:19.528Z,11.10
2022-11-09T14:06:07.263Z,11.10
2022-11-09T14:08:56.361Z,11.10
2022-11-09T14:12:05.216Z,11.10
2022-11-09T14:15:14.017Z,11.10
2022-11-09T14:18:19.626Z,11.10
2022-11-09T14:21:21.446Z,11.00
2022-11-09T14:24:18.126Z,11.00
2022-11-09T14:27:17.440Z,11.00
2022-11-09T14:30:17.085Z,10.90
2022-11-09T14:33:04.328Z,11.00
2022-11-09T14:35:53.990Z,11.00
2022-11-09T14:38:45.536Z,10.90
2022-11-09T14:41:34.842Z,11.00
2022-11-09T14:44:28.426Z,10.90
2022-11-09T14:47:18.726Z,10.90
2022-11-09T14:50:08.410Z,10.90
2022-11-09T14:52:56.409Z,10.90
2022-11-09T14:55:47.687Z,10.90
2022-11-09T14:58:39.793Z,11.00
2022-11-09T15:01:29.400Z,10.90
2022-11-09T15:04:20.285Z,10.90
2022-11-09T15:07:08.302Z,10.80
2022-11-09T15:09:58.773Z,10.80
2022-11-09T15:12:50.177Z,10.80
2022-11-09T15:15:40.173Z,10.80
2022-11-09T15:18:33.915Z,10.80
2022-11-09T15:21:35.877Z,10.80
2022-11-09T15:24:25.310Z,10.80
2022-11-09T15:27:30.421Z,10.80
2022-11-09T15:30:32.213Z,10.80
2022-11-09T15:33:29.916Z,10.80
2022-11-09T15:36:36.397Z,10.70
2022-11-09T15:39:25.741Z,10.70
2022-11-09T15:42:14.588Z,10.60
2022-11-09T15:45:02.006Z,10.60
2022-11-09T15:47:54.627Z,10.60
2022-11-09T15:50:43.228Z,10.60
2022-11-09T15:53:30.266Z,10.60
2022-11-09T15:56:20.254Z,10.60
2022-11-09T15:59:08.098Z,10.60
2022-11-09T16:01:55.232Z,10.50
2022-11-09T16:04:42.844Z,10.50
2022-11-09T16:07:31.751Z,10.50
2022-11-09T16:10:20.621Z,10.50
2022-11-09T16:13:08.789Z,10.50
2022-11-09T16:16:03.557Z,10.40
2022-11-09T16:18:50.984Z,10.40
2022-11-09T16:21:40.785Z,10.40
2022-11-09T16:24:29.513Z,10.40
2022-11-09T16:27:47.964Z,10.40
2022-11-09T16:30:25.345Z,10.40
2022-11-09T16:33:12.621Z,10.40
2022-11-09T16:36:02.148Z,10.30
2022-11-09T16:38:54.317Z,10.30
2022-11-09T16:41:43.464Z,10.30
2022-11-09T16:44:35.579Z,10.30
2022-11-09T16:47:23.191Z,10.30
2022-11-09T16:50:11.289Z,10.30
2022-11-09T16:52:58.416Z,10.30
2022-11-09T16:55:46.374Z,10.30
2022-11-09T16:58:35.278Z,10.20
2022-11-09T17:01:23.990Z,10.30
2022-11-09T17:04:11.622Z,10.30
2022-11-09T17:06:58.964Z,10.20
2022-11-09T17:09:46.352Z,10.20
2022-11-09T17:12:33.843Z,10.20
2022-11-09T17:15:22.703Z,10.20
2022-11-09T17:18:10.411Z,10.20
2022-11-09T17:20:57.999Z,10.10
2022-11-09T17:23:45.530Z,10.10
2022-11-09T17:26:33.504Z,10.10
2022-11-09T17:29:20.948Z,10.10
2022-11-09T17:32:10.921Z,10.00
2022-11-09T17:34:58.788Z,10.10
2022-11-09T17:37:45.854Z,10.00
2022-11-09T17:40:33.369Z,10.10
2022-11-09T17:43:20.537Z,10.00
2022-11-09T17:46:09.373Z,10.10
2022-11-09T17:48:57.895Z,10.10
2022-11-09T17:51:45.160Z,10.10
2022-11-09T17:54:36.684Z,10.10
2022-11-09T17:57:24.550Z,10.00
2022-11-09T18:00:13.547Z,10.00
2022-11-09T18:03:00.753Z,10.00
2022-11-09T18:05:49.815Z,10.10
2022-11-09T18:08:37.379Z,10.00
2022-11-09T18:11:25.417Z,10.00
2022-11-09T18:14:12.948Z,10.00
2022-11-09T18:17:01.790Z,10.00
2022-11-09T18:19:49.103Z,10.00
2022-11-09T18:22:38.182Z,10.00
2022-11-09T18:25:25.309Z,10.00
2022-11-09T18:28:14.280Z,10.00
2022-11-09T18:31:02.925Z,10.00
2022-11-09T18:33:51.664Z,10.00
2022-11-09T18:36:38.890Z,10.10
2022-11-09T18:39:27.992Z,10.10
2022-11-09T18:42:15.339Z,10.00
2022-11-09T18:45:03.317Z,10.10
2022-11-09T18:47:50.813Z,10.00
2022-11-09T18:50:39.582Z,10.00
2022-11-09T18:53:28.170Z,10.00
2022-11-09T18:56:21.758Z,9.90
2022-11-09T18:59:11.743Z,9.90
2022-11-09T19:01:59.463Z,9.90
2022-11-09T20:55:17.420Z,9.90
2022-11-09T20:58:05.007Z,9.80
2022-11-09T21:01:03.917Z,9.60
2022-11-09T21:03:52.379Z,9.50
2022-11-09T21:06:40.123Z,9.60
2022-11-09T21:09:27.448Z,9.60
2022-11-09T21:12:25.074Z,9.60
2022-11-09T21:15:15.268Z,9.60
2022-11-09T21:18:02.628Z,9.50
2022-11-09T21:20:50.081Z,9.60
2022-11-09T21:23:55.539Z,9.60
2022-11-09T21:27:00.400Z,9.60
2022-11-09T21:29:52.583Z,9.60
2022-11-09T21:32:41.266Z,9.60
2022-11-09T21:35:28.565Z,9.60
2022-11-09T21:38:16.400Z,9.50
2022-11-09T21:41:26.038Z,9.50
2022-11-09T21:44:14.956Z,9.50
2022-11-09T21:47:05.142Z,9.50
2022-11-09T21:49:52.958Z,9.50
2022-11-09T21:52:40.587Z,9.50
2022-11-09T21:55:28.276Z,9.50
2022-11-09T21:58:16.076Z,9.50
2022-11-09T22:01:04.393Z,9.50
2022-11-09T22:03:54.644Z,9.50
2022-11-09T22:06:43.807Z,9.50
2022-11-09T22:09:50.410Z,9.50
2022-11-09T22:12:56.767Z,9.50
2022-11-09T22:16:01.737Z,9.50
2022-11-09T22:19:07.062Z,9.50
2022-11-09T22:21:55.866Z,9.60
2022-11-09T22:24:43.538Z,9.60
2022-11-09T22:27:31.880Z,9.50
2022-11-09T22:30:19.330Z,9.50
2022-11-09T22:33:06.629Z,9.50
2022-11-09T22:35:55.940Z,9.50
2022-11-09T22:38:44.770Z,9.50
2022-11-09T22:41:31.838Z,9.60
2022-11-09T22:44:19.106Z,9.60
2022-11-09T22:47:06.215Z,9.60
2022-11-09T22:49:53.752Z,9.50
2022-11-09T22:52:40.809Z,9.50
2022-11-09T22:55:29.327Z,9.50
2022-11-09T22:58:16.846Z,9.60
2022-11-09T23:01:12.951Z,9.50
2022-11-09T23:04:00.174Z,9.50
2022-11-09T23:06:47.180Z,9.50
2022-11-09T23:09:34.741Z,9.50
2022-11-09T23:12:23.382Z,9.50
2022-11-09T23:15:13.393Z,9.50
2022-11-09T23:18:14.928Z,9.50
2022-11-09T23:21:02.037Z,9.50
2022-11-09T23:23:50.265Z,9.50
2022-11-09T23:26:37.328Z,9.50
2022-11-09T23:29:25.963Z,9.50
2022-11-09T23:32:13.005Z,9.50
2022-11-09T23:34:59.940Z,9.50
2022-11-09T23:37:47.524Z,9.50
2022-11-09T23:40:37.035Z,9.50
2022-11-09T23:43:24.676Z,9.50
2022-11-09T23:46:14.813Z,9.50
2022-11-09T23:49:01.873Z,9.50
2022-11-09T23:51:49.279Z,9.50
2022-11-09T23:54:36.436Z,9.50
2022-11-09T23:57:23.769Z,9.50
